Worland, Wyoming
Current Conditions -  °F | °C
As of 8:53 PM on Tuesday 21 Oct 2014 (Local Time) from KWRL Reporting Station
Light Rain Light Rain  
Wind Chill: 56°   Ceiling: Unl
Heat Index: 56°   Visibility: 10mi
Dew Point: 25°   Wind: 10mph
Humidity: 30%   Direction: 20°NNE
Pressure: 29.89"   Gusts: NA
Location:  44.02°N, 107.95°W
Report Text: KWRL 220253Z AUTO 02009KT 10SM -RA CLR 13/M04 A2989 RMK AO2 RAE14B32 SLP109 P0000 60000 T01331039 53031
Loading
Personal Weather Stations






























Interactive Weather Map
Tropical Storm Tracking
New forecast layout! Learn more

10-Day Weather Forecast

Advertisements
Track Severe Weather on mobile